createdAt,value
2022-09-24T00:00:08.341Z,100406.66
2022-09-24T00:02:37.133Z,100401.19
2022-09-24T00:05:07.030Z,100396.16
2022-09-24T00:07:35.406Z,100401.19
2022-09-24T00:10:04.336Z,100400.06
2022-09-24T00:12:34.976Z,100393.06
2022-09-24T00:15:03.881Z,100390.09
2022-09-24T00:17:33.954Z,100392.97
2022-09-24T00:20:03.125Z,100392.97
2022-09-24T00:22:33.760Z,100387.94
2022-09-24T00:25:19.905Z,100387.13
2022-09-24T00:27:48.715Z,100382.91
2022-09-24T00:30:17.696Z,100392.13
2022-09-24T00:32:47.938Z,100386.75
2022-09-24T00:35:16.933Z,100381.13
2022-09-24T00:37:45.436Z,100383.53
2022-09-24T00:40:15.934Z,100378.03
2022-09-24T00:42:44.927Z,100377.56
2022-09-24T00:45:13.708Z,100381.25
2022-09-24T00:47:43.346Z,100379.56
2022-09-24T00:50:19.006Z,100384.34
2022-09-24T00:52:52.156Z,100376.81
2022-09-24T00:55:21.618Z,100380.38
2022-09-24T00:57:52.773Z,100377.03
2022-09-24T01:00:22.136Z,100381.22
2022-09-24T01:02:56.497Z,100374.88
2022-09-24T01:05:26.674Z,100364.00
2022-09-24T01:07:55.174Z,100368.50
2022-09-24T01:10:53.027Z,100361.47
2022-09-24T01:13:33.480Z,100369.72
2022-09-24T01:16:03.551Z,100373.81
2022-09-24T01:18:38.608Z,100370.47
2022-09-24T01:21:26.634Z,100372.63
2022-09-24T01:24:38.770Z,100370.00
2022-09-24T01:27:13.511Z,100365.81
2022-09-24T01:29:53.396Z,100355.06
2022-09-24T01:32:31.594Z,100358.03
2022-09-24T01:35:05.553Z,100359.81
2022-09-24T01:37:36.111Z,100356.25
2022-09-24T01:40:05.205Z,100357.16
2022-09-24T01:42:34.840Z,100359.09
2022-09-24T01:45:08.114Z,100359.94
2022-09-24T01:47:39.998Z,100355.25
2022-09-24T01:50:11.267Z,100363.03
2022-09-24T01:52:44.117Z,100361.13
2022-09-24T01:55:15.469Z,100359.47
2022-09-24T01:57:47.574Z,100357.66
2022-09-24T02:00:19.776Z,100354.53
2022-09-24T02:02:51.504Z,100362.59
2022-09-24T02:06:38.481Z,100355.66
2022-09-24T02:09:34.063Z,100354.94
2022-09-24T02:12:07.526Z,100348.31
2022-09-24T02:14:39.549Z,100356.47
2022-09-24T02:17:11.424Z,100352.97
2022-09-24T02:19:42.345Z,100344.50
2022-09-24T02:22:12.542Z,100348.28
2022-09-24T02:24:45.980Z,100346.13
2022-09-24T02:27:14.835Z,100345.31
2022-09-24T02:29:46.683Z,100340.63
2022-09-24T02:32:20.398Z,100351.53
2022-09-24T02:34:51.891Z,100350.56
2022-09-24T02:37:21.565Z,100353.19
2022-09-24T02:39:50.489Z,100346.16
2022-09-24T02:42:20.389Z,100351.53
2022-09-24T02:44:49.299Z,100339.69
2022-09-24T02:47:19.747Z,100348.03
2022-09-24T02:49:48.243Z,100338.84
2022-09-24T02:52:17.165Z,100340.72
2022-09-24T02:54:46.129Z,100341.91
2022-09-24T02:57:14.961Z,100341.19
2022-09-24T02:59:43.722Z,100337.13
2022-09-24T03:02:12.976Z,100334.34
2022-09-24T03:04:42.863Z,100336.47
2022-09-24T03:07:15.245Z,100332.75
2022-09-24T03:09:44.185Z,100336.41
2022-09-24T03:12:13.271Z,100341.56
2022-09-24T03:14:42.169Z,100335.59
2022-09-24T03:17:10.978Z,100334.75
2022-09-24T03:19:39.618Z,100333.19
2022-09-24T03:22:09.808Z,100334.50
2022-09-24T03:24:38.673Z,100329.97
2022-09-24T03:27:07.426Z,100328.22
2022-09-24T03:29:53.333Z,100321.16
2022-09-24T03:32:22.020Z,100326.09
2022-09-24T03:34:50.470Z,100325.38
2022-09-24T03:37:20.546Z,100325.38
2022-09-24T03:39:49.432Z,100331.66
2022-09-24T03:42:18.374Z,100327.25
2022-09-24T03:44:47.270Z,100325.59
2022-09-24T03:47:15.955Z,100323.41
2022-09-24T03:49:44.308Z,100326.25
2022-09-24T03:52:13.115Z,100334.88
2022-09-24T03:54:43.313Z,100329.38
2022-09-24T03:57:14.987Z,100334.50
2022-09-24T03:59:43.853Z,100332.63
2022-09-24T04:02:13.170Z,100337.88
2022-09-24T04:04:41.629Z,100342.16
2022-09-24T04:07:10.999Z,100341.56
2022-09-24T04:09:45.845Z,100345.38
2022-09-24T04:12:14.894Z,100339.75
2022-09-24T04:14:43.635Z,100347.63
2022-09-24T04:17:12.415Z,100339.00
2022-09-24T04:19:41.007Z,100341.63
2022-09-24T04:22:09.838Z,100334.50
2022-09-24T04:24:38.608Z,100334.22
2022-09-24T04:27:08.720Z,100336.41
2022-09-24T04:29:37.733Z,100336.81
2022-09-24T04:32:07.133Z,100334.69
2022-09-24T04:34:35.541Z,100342.31
2022-09-24T04:37:04.311Z,100340.31
2022-09-24T04:39:33.278Z,100345.94
2022-09-24T04:42:02.151Z,100340.38
2022-09-24T04:44:32.389Z,100344.31
2022-09-24T04:47:03.358Z,100343.38
2022-09-24T04:49:31.770Z,100339.78
2022-09-24T04:52:01.224Z,100338.84
2022-09-24T04:54:30.580Z,100332.16
2022-09-24T04:56:59.409Z,100337.91
2022-09-24T04:59:28.533Z,100346.88
2022-09-24T05:01:58.366Z,100348.91
2022-09-24T05:04:27.033Z,100342.97
2022-09-24T05:06:55.882Z,100341.53
2022-09-24T05:09:25.292Z,100339.63
2022-09-24T05:11:54.182Z,100333.75
2022-09-24T05:14:23.149Z,100333.44
2022-09-24T05:16:52.091Z,100332.81
2022-09-24T05:19:22.326Z,100332.28
2022-09-24T05:21:51.538Z,100334.63
2022-09-24T05:24:20.514Z,100334.59
2022-09-24T05:27:06.458Z,100324.72
2022-09-24T05:29:35.262Z,100330.84
2022-09-24T05:32:06.711Z,100326.66
2022-09-24T05:34:36.734Z,100319.91
2022-09-24T05:37:05.732Z,100323.44
2022-09-24T05:39:34.578Z,100318.97
2022-09-24T05:42:04.440Z,100316.97
2022-09-24T05:44:33.518Z,100321.75
2022-09-24T05:47:02.519Z,100312.75
2022-09-24T05:49:32.148Z,100317.53
2022-09-24T05:52:02.967Z,100321.63
2022-09-24T05:54:31.855Z,100319.09
2022-09-24T05:57:00.656Z,100319.25
2022-09-24T05:59:29.440Z,100314.41
2022-09-24T06:01:58.296Z,100322.06
2022-09-24T06:04:29.741Z,100324.34
2022-09-24T06:06:59.653Z,100325.94
2022-09-24T06:09:29.845Z,100335.97
2022-09-24T06:11:58.561Z,100336.16
2022-09-24T06:14:28.349Z,100331.06
2022-09-24T06:16:58.264Z,100329.69
2022-09-24T06:19:27.057Z,100329.09
2022-09-24T06:21:57.362Z,100336.47
2022-09-24T06:24:26.118Z,100335.78
2022-09-24T06:26:56.252Z,100324.97
2022-09-24T06:29:25.137Z,100324.34
2022-09-24T06:31:54.124Z,100325.00
2022-09-24T06:34:22.914Z,100332.59
2022-09-24T06:36:55.309Z,100321.97
2022-09-24T06:39:24.519Z,100318.53
2022-09-24T06:41:53.553Z,100317.06
2022-09-24T06:44:27.277Z,100320.78
2022-09-24T06:46:55.853Z,100316.50
2022-09-24T06:49:24.674Z,100319.50
2022-09-24T06:51:55.322Z,100321.84
2022-09-24T06:54:24.216Z,100321.88
2022-09-24T06:56:52.996Z,100324.06
2022-09-24T06:59:21.796Z,100326.03
2022-09-24T07:01:51.658Z,100313.09
2022-09-24T07:04:20.493Z,100319.81
2022-09-24T07:07:06.631Z,100321.06
2022-09-24T07:09:36.469Z,100325.38
2022-09-24T07:12:08.338Z,100332.63
2022-09-24T07:14:37.735Z,100331.38
2022-09-24T07:17:07.855Z,100334.22
2022-09-24T07:19:36.540Z,100342.69
2022-09-24T07:22:05.536Z,100338.19
2022-09-24T07:24:34.288Z,100335.88
2022-09-24T07:27:05.576Z,100340.78
2022-09-24T07:29:34.672Z,100335.84
2022-09-24T07:32:06.901Z,100339.25
2022-09-24T07:34:36.850Z,100345.78
2022-09-24T07:37:06.108Z,100347.06
2022-09-24T07:39:35.036Z,100347.91
2022-09-24T07:42:03.729Z,100339.78
2022-09-24T07:44:32.459Z,100346.72
2022-09-24T07:47:01.291Z,100337.09
2022-09-24T07:49:32.489Z,100339.06
2022-09-24T07:52:03.389Z,100335.47
2022-09-24T07:54:32.633Z,100335.63
2022-09-24T07:57:02.795Z,100332.63
2022-09-24T07:59:32.726Z,100331.78
2022-09-24T08:02:01.520Z,100331.47
2022-09-24T08:04:32.052Z,100334.25
2022-09-24T08:07:02.227Z,100333.03
2022-09-24T08:09:33.100Z,100325.72
2022-09-24T08:12:02.344Z,100328.06
2022-09-24T08:14:31.138Z,100330.00
2022-09-24T08:16:59.826Z,100331.47
2022-09-24T08:19:28.345Z,100337.47
2022-09-24T08:21:57.763Z,100332.88
2022-09-24T08:24:28.159Z,100333.06
2022-09-24T08:26:56.814Z,100331.38
2022-09-24T08:29:25.484Z,100326.03
2022-09-24T08:31:53.892Z,100331.19
2022-09-24T08:34:22.587Z,100331.47
2022-09-24T08:36:55.308Z,100336.75
2022-09-24T08:39:23.984Z,100335.22
2022-09-24T08:41:57.216Z,100339.22
2022-09-24T08:44:48.384Z,100334.25
2022-09-24T08:47:24.408Z,100332.25
2022-09-24T08:49:58.470Z,100337.63
2022-09-24T08:52:36.747Z,100339.00
2022-09-24T08:55:08.942Z,100335.91
2022-09-24T08:57:43.490Z,100332.69
2022-09-24T09:00:15.548Z,100332.34
2022-09-24T09:02:51.585Z,100332.28
2022-09-24T09:05:27.821Z,100330.78
2022-09-24T09:08:02.916Z,100333.88
2022-09-24T09:10:34.701Z,100316.56
2022-09-24T09:13:14.330Z,100314.00
2022-09-24T09:15:44.583Z,100323.19
2022-09-24T09:18:16.498Z,100317.81
2022-09-24T09:20:46.463Z,100319.81
2022-09-24T09:23:18.151Z,100317.06
2022-09-24T09:25:52.528Z,100320.84
2022-09-24T09:28:22.789Z,100309.50
2022-09-24T09:31:04.589Z,100316.78
2022-09-24T09:33:57.087Z,100305.78
2022-09-24T09:36:37.469Z,100305.13
2022-09-24T09:39:10.718Z,100314.00
2022-09-24T09:41:43.463Z,100308.59
2022-09-24T09:44:16.976Z,100320.88
2022-09-24T09:46:49.609Z,100317.22
2022-09-24T09:49:19.796Z,100315.78
2022-09-24T09:51:49.646Z,100317.69
2022-09-24T09:54:18.562Z,100308.06
2022-09-24T09:56:50.498Z,100320.53
2022-09-24T09:59:28.825Z,100322.03
2022-09-24T10:01:58.372Z,100317.88
2022-09-24T10:04:39.413Z,100307.03
2022-09-24T10:07:10.564Z,100318.91
2022-09-24T10:09:40.290Z,100318.56
2022-09-24T10:12:11.135Z,100320.75
2022-09-24T10:14:41.436Z,100322.69
2022-09-24T10:17:14.759Z,100312.94
2022-09-24T10:19:46.261Z,100314.09
2022-09-24T10:22:21.773Z,100305.88
2022-09-24T10:24:51.912Z,100314.81
2022-09-24T10:27:25.440Z,100305.19
2022-09-24T10:30:13.723Z,100310.69
2022-09-24T10:32:42.737Z,100310.25
2022-09-24T10:35:23.804Z,100314.72
2022-09-24T10:37:53.567Z,100297.91
2022-09-24T10:40:25.929Z,100306.06
2022-09-24T10:42:59.901Z,100300.88
2022-09-24T10:45:54.387Z,100285.47
2022-09-24T10:48:25.608Z,100301.66
2022-09-24T10:50:59.815Z,100298.03
2022-09-24T10:53:40.293Z,100298.97
2022-09-24T10:56:15.556Z,100297.66
2022-09-24T10:59:09.451Z,100297.84
2022-09-24T11:01:45.728Z,100296.91
2022-09-24T11:04:39.955Z,100289.22
2022-09-24T11:07:25.688Z,100281.41
2022-09-24T11:09:57.865Z,100284.94
2022-09-24T11:12:32.474Z,100278.00
2022-09-24T11:15:14.437Z,100284.66
2022-09-24T11:17:52.187Z,100281.00
2022-09-24T11:20:32.454Z,100281.31
2022-09-24T11:23:19.755Z,100287.84
2022-09-24T11:25:52.371Z,100274.28
2022-09-24T11:28:34.795Z,100266.94
2022-09-24T11:31:09.194Z,100278.66
2022-09-24T11:33:53.303Z,100274.44
2022-09-24T11:36:35.028Z,100264.22
2022-09-24T11:39:13.605Z,100261.19
2022-09-24T11:41:51.094Z,100266.66
2022-09-24T11:44:47.865Z,100259.44
2022-09-24T11:47:27.413Z,100262.88
2022-09-24T11:50:13.246Z,100268.41
2022-09-24T11:52:44.143Z,100259.16
2022-09-24T11:55:18.604Z,100257.19
2022-09-24T11:57:51.920Z,100252.41
2022-09-24T12:00:22.182Z,100254.03
2022-09-24T12:02:53.601Z,100262.91
2022-09-24T12:05:30.141Z,100258.44
2022-09-24T12:08:03.423Z,100242.78
2022-09-24T12:10:36.524Z,100242.53
2022-09-24T12:13:13.096Z,100239.13
2022-09-24T12:15:51.009Z,100240.56
2022-09-24T12:18:22.977Z,100236.19
2022-09-24T12:20:55.006Z,100233.69
2022-09-24T12:23:28.354Z,100232.41
2022-09-24T12:25:59.877Z,100229.00
2022-09-24T12:28:50.715Z,100225.88
2022-09-24T12:31:42.396Z,100232.81
2022-09-24T12:34:17.573Z,100230.91
2022-09-24T12:36:57.488Z,100241.53
2022-09-24T12:39:27.628Z,100237.44
2022-09-24T12:42:01.415Z,100240.88
2022-09-24T12:44:36.552Z,100239.06
2022-09-24T12:47:07.365Z,100245.31
2022-09-24T12:49:36.846Z,100243.09
2022-09-24T12:52:19.338Z,100237.00
2022-09-24T12:54:48.199Z,100230.47
2022-09-24T12:57:24.263Z,100236.16
2022-09-24T12:59:55.817Z,100238.44
2022-09-24T13:02:25.062Z,100235.63
2022-09-24T13:05:17.659Z,100237.13
2022-09-24T13:07:59.330Z,100240.22
2022-09-24T13:10:31.625Z,100244.13
2022-09-24T13:13:01.743Z,100240.91
2022-09-24T13:15:37.704Z,100247.53
2022-09-24T13:18:25.235Z,100239.97
2022-09-24T13:21:05.762Z,100238.75
2022-09-24T13:23:49.638Z,100239.59
2022-09-24T13:26:30.994Z,100232.63
2022-09-24T13:29:01.617Z,100232.78
2022-09-24T13:31:39.718Z,100232.31
2022-09-24T13:34:17.768Z,100230.97
2022-09-24T13:36:49.918Z,100226.13
2022-09-24T13:39:23.806Z,100223.88
2022-09-24T13:42:00.506Z,100219.94
2022-09-24T13:44:35.181Z,100223.75
2022-09-24T13:47:07.713Z,100226.38
2022-09-24T13:49:36.817Z,100222.25
2022-09-24T13:52:13.289Z,100217.19
2022-09-24T13:54:50.191Z,100216.84
2022-09-24T13:57:24.095Z,100212.34
2022-09-24T14:00:05.776Z,100216.03
2022-09-24T14:02:38.670Z,100219.38
2022-09-24T14:05:16.451Z,100208.88
2022-09-24T14:07:54.369Z,100216.13
2022-09-24T14:10:25.108Z,100216.47
2022-09-24T14:13:17.835Z,100213.38
2022-09-24T14:15:57.431Z,100213.97
2022-09-24T14:18:26.746Z,100216.66
2022-09-24T14:20:58.199Z,100209.00
2022-09-24T14:23:30.297Z,100202.03
2022-09-24T14:26:00.228Z,100199.88
2022-09-24T14:28:32.859Z,100208.81
2022-09-24T14:31:02.534Z,100202.47
2022-09-24T14:33:33.388Z,100201.81
2022-09-24T14:36:03.908Z,100197.91
2022-09-24T14:38:35.856Z,100194.59
2022-09-24T14:41:09.065Z,100197.16
2022-09-24T14:43:40.684Z,100196.06
2022-09-24T14:46:16.228Z,100190.97
2022-09-24T14:48:45.475Z,100196.75
2022-09-24T14:51:28.562Z,100191.31
2022-09-24T14:54:02.855Z,100199.09
2022-09-24T14:56:35.088Z,100191.38
2022-09-24T14:59:15.055Z,100191.69
2022-09-24T15:01:43.977Z,100191.50
2022-09-24T15:04:19.609Z,100187.16
2022-09-24T15:06:49.219Z,100188.47
2022-09-24T15:09:25.504Z,100184.28
2022-09-24T15:11:58.054Z,100185.50
2022-09-24T15:14:34.631Z,100182.19
2022-09-24T15:17:10.618Z,100183.47
2022-09-24T15:19:43.370Z,100189.59
2022-09-24T15:22:12.100Z,100190.97
2022-09-24T15:24:41.009Z,100190.47
2022-09-24T15:27:21.022Z,100189.66
2022-09-24T15:29:50.048Z,100188.84
2022-09-24T15:32:20.264Z,100192.13
2022-09-24T15:34:50.290Z,100182.34
2022-09-24T15:37:20.088Z,100191.09
2022-09-24T15:39:49.815Z,100183.94
2022-09-24T15:42:21.487Z,100186.84
2022-09-24T15:44:50.876Z,100189.38
2022-09-24T15:47:19.893Z,100192.81
2022-09-24T15:49:48.257Z,100187.41
2022-09-24T15:52:24.921Z,100181.56
2022-09-24T15:54:55.924Z,100187.41
2022-09-24T15:57:26.730Z,100192.50
2022-09-24T15:59:55.639Z,100187.88
2022-09-24T16:02:26.741Z,100183.94
2022-09-24T16:05:01.453Z,100179.84
2022-09-24T16:07:35.270Z,100184.38
2022-09-24T16:10:04.202Z,100185.72
2022-09-24T16:12:34.645Z,100186.41
2022-09-24T16:15:03.575Z,100188.06
2022-09-24T16:17:32.531Z,100188.59
2022-09-24T16:20:01.489Z,100184.97
2022-09-24T16:22:29.837Z,100188.28
2022-09-24T16:24:58.708Z,100185.50
2022-09-24T16:27:27.580Z,100191.66
2022-09-24T16:29:57.981Z,100187.34
2022-09-24T16:32:26.663Z,100191.50
2022-09-24T16:34:57.080Z,100192.84
2022-09-24T16:37:26.184Z,100187.03
2022-09-24T16:39:56.258Z,100190.22
2022-09-24T16:42:26.548Z,100194.84
2022-09-24T16:44:55.482Z,100189.38
2022-09-24T16:47:25.587Z,100188.03
2022-09-24T16:49:54.252Z,100187.53
2022-09-24T16:52:23.169Z,100183.56
2022-09-24T16:54:53.121Z,100189.88
2022-09-24T16:57:22.054Z,100189.53
2022-09-24T16:59:50.919Z,100188.66
2022-09-24T17:02:20.386Z,100189.44
2022-09-24T17:04:50.388Z,100187.63
2022-09-24T17:07:19.942Z,100188.56
2022-09-24T17:10:06.246Z,100188.56
2022-09-24T17:12:34.971Z,100187.66
2022-09-24T17:15:04.518Z,100190.63
2022-09-24T17:17:44.334Z,100190.94
2022-09-24T17:20:20.929Z,100189.28
2022-09-24T17:22:50.408Z,100185.28
2022-09-24T17:25:19.970Z,100192.41
2022-09-24T17:27:49.185Z,100195.88
2022-09-24T17:30:21.246Z,100191.41
2022-09-24T17:32:52.427Z,100188.56
2022-09-24T17:35:23.110Z,100193.38
2022-09-24T17:37:51.552Z,100196.03
2022-09-24T17:40:24.198Z,100186.78
2022-09-24T17:42:54.726Z,100194.22
2022-09-24T17:45:23.690Z,100195.03
2022-09-24T17:47:58.227Z,100195.88
2022-09-24T17:50:30.105Z,100194.69
2022-09-24T17:52:59.609Z,100195.16
2022-09-24T17:55:28.699Z,100196.03
2022-09-24T17:57:57.620Z,100196.78
2022-09-24T18:00:26.930Z,100201.72
2022-09-24T18:02:56.367Z,100207.00
2022-09-24T18:05:25.303Z,100204.13
2022-09-24T18:07:55.196Z,100204.59
2022-09-24T18:10:24.245Z,100207.88
2022-09-24T18:12:55.158Z,100209.34
2022-09-24T18:15:25.572Z,100203.66
2022-09-24T18:17:56.915Z,100210.88
2022-09-24T18:20:26.165Z,100213.31
2022-09-24T18:22:56.092Z,100208.63
2022-09-24T18:25:24.914Z,100209.38
2022-09-24T18:27:53.611Z,100211.47
2022-09-24T18:30:22.538Z,100208.00
2022-09-24T18:32:51.357Z,100216.47
2022-09-24T18:35:21.535Z,100215.94
2022-09-24T18:37:50.589Z,100215.41
2022-09-24T18:40:21.478Z,100210.41
2022-09-24T18:42:50.609Z,100214.34
2022-09-24T18:45:19.532Z,100213.13
2022-09-24T18:47:49.063Z,100210.50
2022-09-24T18:50:18.578Z,100217.75
2022-09-24T18:52:47.023Z,100220.69
2022-09-24T18:55:16.302Z,100228.81
2022-09-24T18:57:46.484Z,100228.13
2022-09-24T19:00:29.651Z,100227.06
2022-09-24T19:03:00.120Z,100228.91
2022-09-24T19:05:29.877Z,100225.19
2022-09-24T19:07:59.311Z,100231.41
2022-09-24T19:10:27.937Z,100234.78
2022-09-24T19:12:58.285Z,100228.84
2022-09-24T19:15:27.234Z,100231.09
2022-09-24T19:17:56.236Z,100227.34
2022-09-24T19:20:24.896Z,100225.31
2022-09-24T19:23:00.339Z,100227.41
2022-09-24T19:25:33.151Z,100222.84
2022-09-24T19:28:04.850Z,100226.88
2022-09-24T19:30:40.311Z,100228.03
2022-09-24T19:33:10.019Z,100229.84
2022-09-24T19:35:38.948Z,100224.56
2022-09-24T19:38:08.071Z,100227.88
2022-09-24T19:40:36.447Z,100233.84
2022-09-24T19:43:06.645Z,100233.03
2022-09-24T19:45:35.993Z,100223.19
2022-09-24T19:48:04.775Z,100218.28
2022-09-24T19:50:35.148Z,100222.34
2022-09-24T19:53:05.385Z,100228.66
2022-09-24T19:55:36.333Z,100221.00
2022-09-24T19:58:07.458Z,100223.22
2022-09-24T20:00:36.252Z,100221.69
2022-09-24T20:03:05.592Z,100221.97
2022-09-24T20:05:34.898Z,100225.31
2022-09-24T20:08:03.994Z,100222.25
2022-09-24T20:10:36.942Z,100217.94
2022-09-24T20:13:10.025Z,100215.31
2022-09-24T20:15:39.449Z,100222.38
2022-09-24T20:18:08.836Z,100216.13
2022-09-24T20:20:37.611Z,100222.25
2022-09-24T20:23:08.205Z,100214.47
2022-09-24T20:25:54.097Z,100220.88
2022-09-24T20:28:25.541Z,100213.91
2022-09-24T20:30:54.632Z,100212.25
2022-09-24T20:33:23.515Z,100213.91
2022-09-24T20:35:53.422Z,100210.16
2022-09-24T20:38:22.596Z,100204.84
2022-09-24T20:40:51.077Z,100208.19
2022-09-24T20:43:20.075Z,100208.06
2022-09-24T20:45:50.286Z,100212.22
2022-09-24T20:48:19.067Z,100204.97
2022-09-24T20:50:47.974Z,100208.03
2022-09-24T20:53:16.849Z,100206.25
2022-09-24T20:55:45.401Z,100212.50
2022-09-24T20:58:14.160Z,100212.50
2022-09-24T21:00:54.646Z,100211.66
2022-09-24T21:03:43.510Z,100210.00
2022-09-24T21:06:15.070Z,100212.09
2022-09-24T21:08:45.146Z,100211.41
2022-09-24T21:11:16.509Z,100213.34
2022-09-24T21:13:50.070Z,100216.41
2022-09-24T21:16:21.178Z,100221.97
2022-09-24T21:18:54.431Z,100221.59
2022-09-24T21:21:24.895Z,100220.31
2022-09-24T21:23:55.071Z,100219.22
2022-09-24T21:26:25.294Z,100225.09
2022-09-24T21:28:55.712Z,100219.47
2022-09-24T21:31:26.648Z,100220.88
2022-09-24T21:33:57.434Z,100223.09
2022-09-24T21:36:31.003Z,100224.50
2022-09-24T21:39:01.689Z,100223.22
2022-09-24T21:41:32.200Z,100216.28
2022-09-24T21:44:01.417Z,100208.91
2022-09-24T21:46:31.427Z,100210.88
2022-09-24T21:49:02.690Z,100216.69
2022-09-24T21:51:31.638Z,100214.34
2022-09-24T21:54:02.021Z,100222.78
2022-09-24T21:56:31.266Z,100225.28
2022-09-24T21:59:00.570Z,100222.22
2022-09-24T22:01:30.371Z,100222.09
2022-09-24T22:04:04.189Z,100218.22
2022-09-24T22:06:33.145Z,100218.06
2022-09-24T22:09:04.573Z,100215.28
2022-09-24T22:11:34.610Z,100214.72
2022-09-24T22:14:04.077Z,100210.41
2022-09-24T22:16:34.075Z,100216.81
2022-09-24T22:19:05.492Z,100210.56
2022-09-24T22:21:34.730Z,100207.50
2022-09-24T22:24:03.761Z,100215.16
2022-09-24T22:26:32.512Z,100217.25
2022-09-24T22:29:01.839Z,100210.88
2022-09-24T22:31:30.209Z,100221.13
2022-09-24T22:34:16.733Z,100212.94
2022-09-24T22:36:47.313Z,100218.09
2022-09-24T22:39:16.402Z,100208.22
2022-09-24T22:41:45.162Z,100205.44
2022-09-24T22:44:14.140Z,100206.00
2022-09-24T22:46:42.818Z,100197.25
2022-09-24T22:49:12.033Z,100202.66
2022-09-24T22:51:40.936Z,100196.69
2022-09-24T22:54:12.107Z,100189.75
2022-09-24T22:56:41.230Z,100195.16
2022-09-24T22:59:10.070Z,100190.03
2022-09-24T23:01:41.804Z,100190.13
2022-09-24T23:04:13.485Z,100186.97
2022-09-24T23:06:42.747Z,100182.38
2022-09-24T23:09:13.405Z,100177.06
2022-09-24T23:11:43.632Z,100189.56
2022-09-24T23:14:14.556Z,100194.84
2022-09-24T23:16:42.989Z,100191.50
2022-09-24T23:19:15.261Z,100191.91
2022-09-24T23:21:44.393Z,100191.59
2022-09-24T23:24:17.136Z,100186.03
2022-09-24T23:26:46.345Z,100187.53
2022-09-24T23:29:15.506Z,100191.03
2022-09-24T23:31:44.078Z,100190.88
2022-09-24T23:34:14.480Z,100186.84
2022-09-24T23:36:46.307Z,100186.66
2022-09-24T23:39:16.477Z,100192.78
2022-09-24T23:41:45.527Z,100185.56
2022-09-24T23:44:14.419Z,100189.56
2022-09-24T23:46:42.724Z,100190.81
2022-09-24T23:49:11.422Z,100191.78
2022-09-24T23:51:40.144Z,100185.66
2022-09-24T23:54:09.107Z,100176.22
2022-09-24T23:56:39.240Z,100177.31
2022-09-24T23:59:08.157Z,100178.72
